Time;durP1;ratioP1;P1;durP2;ratioP2;P2;SDS_P1;SDS_P2;PMS_P1;PMS_P2;Temp;Humidity;BMP_temperature;BMP_pressure;BME280_temperature;BME280_humidity;BME280_pressure;Samples;Min_cycle;Max_cycle;Signal;HPM_P1;HPM_P2
2024/03/25 00:00:27;;;;;;;;;;;;;;;;;;4969441;28;89962;-73
2024/03/25 00:02:53;;;;;;;;;;;;;;;;;;4966279;28;90387;-75
2024/03/25 00:05:22;;;;;;;;;;;;;;;;;;4997542;28;90875;-72
2024/03/25 00:07:48;;;;;;;;;;;;;;;;;;4966098;28;90181;-71
2024/03/25 00:10:13;;;;;;;;;;;;;;;;;;4964713;28;89861;-71
2024/03/25 00:12:38;;;;;;;;;;;;;;;;;;4966721;28;89381;-70
2024/03/25 00:15:04;;;;;;;;;;;;;;;;;;4966292;28;89535;-71
2024/03/25 00:17:29;;;;;;;;;;;;;;;;;;4966278;28;89804;-70
2024/03/25 00:19:54;;;;;;;;;;;;;;;;;;4966091;28;90394;-73
2024/03/25 00:22:21;;;;;;;;;;;;;;;;;;4967580;28;89382;-73
2024/03/25 00:24:46;;;;;;;;;;;;;;;;;;4966868;28;89536;-74
2024/03/25 00:27:12;;;;;;;;;;;;;;;;;;4967409;28;89398;-73
2024/03/25 00:29:37;;;;;;;;;;;;;;;;;;4967369;28;90908;-76
2024/03/25 00:32:02;;;;;;;;;;;;;;;;;;4967344;28;89214;-76
2024/03/25 00:34:28;;;;;;;;;;;;;;;;;;4967785;28;89640;-74
2024/03/25 00:36:53;;;;;;;;;;;;;;;;;;4967264;28;89259;-75
2024/03/25 00:39:19;;;;;;;;;;;;;;;;;;4968998;28;89456;-76
2024/03/25 00:41:44;;;;;;;;;;;;;;;;;;4969236;28;89967;-74
2024/03/25 00:44:10;;;;;;;;;;;;;;;;;;4972669;28;90401;-74
2024/03/25 00:46:35;;;;;;;;;;;;;;;;;;4970419;28;89512;-76
2024/03/25 00:49:01;;;;;;;;;;;;;;;;;;4965967;28;90775;-70
2024/03/25 00:51:26;;;;;;;;;;;;;;;;;;4967753;28;89448;-70
2024/03/25 00:53:51;;;;;;;;;;;;;;;;;;4965741;28;89422;-75
2024/03/25 00:56:16;;;;;;;;;;;;;;;;;;4964844;28;89699;-74
2024/03/25 00:58:41;;;;;;;;;;;;;;;;;;4964128;28;91081;-70
2024/03/25 01:01:07;;;;;;;;;;;;;;;;;;4965223;28;89243;-75
2024/03/25 01:03:32;;;;;;;;;;;;;;;;;;4965083;28;89819;-74
2024/03/25 01:05:57;;;;;;;;;;;;;;;;;;4967465;28;89656;-74
2024/03/25 01:08:22;;;;;;;;;;;;;;;;;;4964907;28;90388;-76
2024/03/25 01:10:47;;;;;;;;;;;;;;;;;;4965125;28;89336;-75
2024/03/25 01:13:13;;;;;;;;;;;;;;;;;;4965377;28;89518;-75
2024/03/25 01:15:38;;;;;;;;;;;;;;;;;;4965243;28;90078;-74
2024/03/25 01:18:03;;;;;;;;;;;;;;;;;;4963600;28;91738;-71
2024/03/25 01:20:28;;;;;;;;;;;;;;;;;;4963315;28;91004;-71
2024/03/25 01:22:54;;;;;;;;;;;;;;;;;;4963974;28;90991;-72
2024/03/25 01:25:19;;;;;;;;;;;;;;;;;;4967556;28;89341;-76
2024/03/25 01:27:45;;;;;;;;;;;;;;;;;;4959180;28;90333;-71
2024/03/25 01:30:10;;;;;;;;;;;;;;;;;;4960198;28;92079;-74
2024/03/25 01:32:36;;;;;;;;;;;;;;;;;;4945394;28;90087;-74
2024/03/25 01:35:01;;;;;;;;;;;;;;;;;;4944078;28;90821;-75
2024/03/25 01:37:26;;;;;;;;;;;;;;;;;;4946009;28;89287;-75
2024/03/25 01:39:51;;;;;;;;;;;;;;;;;;4945985;28;89446;-75
2024/03/25 01:42:16;;;;;;;;;;;;;;;;;;4960122;28;90737;-73
2024/03/25 01:44:42;;;;;;;;;;;;;;;;;;4945816;28;89672;-74
2024/03/25 01:47:07;;;;;;;;;;;;;;;;;;4948069;28;89406;-75
2024/03/25 01:49:32;;;;;;;;;;;;;;;;;;4944803;28;89629;-75
2024/03/25 01:51:57;;;;;;;;;;;;;;;;;;4945077;28;89268;-76
2024/03/25 01:54:23;;;;;;;;;;;;;;;;;;4944483;28;89965;-74
2024/03/25 01:56:49;;;;;;;;;;;;;;;;;;4944694;28;89512;-75
2024/03/25 01:59:16;;;;;;;;;;;;;;;;;;4945168;28;89449;-73
2024/03/25 02:01:42;;;;;;;;;;;;;;;;;;4959899;28;93308;-71
2024/03/25 02:04:08;;;;;;;;;;;;;;;;;;4945124;28;89888;-70
2024/03/25 02:06:35;;;;;;;;;;;;;;;;;;4945405;28;89474;-72
2024/03/25 02:09:01;;;;;;;;;;;;;;;;;;4948390;28;89671;-70
2024/03/25 02:11:27;;;;;;;;;;;;;;;;;;4960867;28;89312;-70
2024/03/25 02:13:53;;;;;;;;;;;;;;;;;;4945460;28;89840;-69
2024/03/25 02:16:18;;;;;;;;;;;;;;;;;;4964009;28;90310;-73
2024/03/25 02:18:43;;;;;;;;;;;;;;;;;;4968528;28;89531;-70
2024/03/25 02:21:08;;;;;;;;;;;;;;;;;;4968383;28;89569;-71
2024/03/25 02:23:34;;;;;;;;;;;;;;;;;;4969241;28;89502;-70
2024/03/25 02:25:59;;;;;;;;;;;;;;;;;;4987154;28;90247;-72
2024/03/25 02:28:25;;;;;;;;;;;;;;;;;;4988351;28;89774;-75
2024/03/25 02:30:50;;;;;;;;;;;;;;;;;;4990814;28;90690;-73
2024/03/25 02:33:15;;;;;;;;;;;;;;;;;;4989495;28;88927;-75
2024/03/25 02:35:41;;;;;;;;;;;;;;;;;;4988482;28;89207;-75
2024/03/25 02:38:07;;;;;;;;;;;;;;;;;;4987070;28;89134;-75
2024/03/25 02:40:33;;;;;;;;;;;;;;;;;;4987977;28;90433;-75
2024/03/25 02:42:59;;;;;;;;;;;;;;;;;;4987824;28;89525;-74
2024/03/25 02:45:24;;;;;;;;;;;;;;;;;;4987416;28;89335;-75
2024/03/25 02:47:50;;;;;;;;;;;;;;;;;;4987499;28;89991;-76
2024/03/25 02:50:15;;;;;;;;;;;;;;;;;;4987490;28;89334;-75
2024/03/25 02:52:40;;;;;;;;;;;;;;;;;;4990201;28;89290;-75
2024/03/25 02:55:06;;;;;;;;;;;;;;;;;;4987265;28;89782;-76
2024/03/25 02:57:31;;;;;;;;;;;;;;;;;;4987620;28;89687;-72
2024/03/25 02:59:56;;;;;;;;;;;;;;;;;;4987675;28;90180;-75
2024/03/25 03:02:21;;;;;;;;;;;;;;;;;;4985916;28;91779;-74
2024/03/25 03:04:47;;;;;;;;;;;;;;;;;;4987865;28;89446;-74
2024/03/25 03:07:12;;;;;;;;;;;;;;;;;;4987191;28;89658;-71
2024/03/25 03:09:37;;;;;;;;;;;;;;;;;;4987397;28;89444;-73
2024/03/25 03:12:03;;;;;;;;;;;;;;;;;;4985963;28;90554;-74
2024/03/25 03:14:28;;;;;;;;;;;;;;;;;;4989445;28;89623;-75
2024/03/25 03:16:57;;;;;;;;;;;;;;;;;;4985639;28;90683;-72
2024/03/25 03:19:23;;;;;;;;;;;;;;;;;;4986847;28;90849;-71
2024/03/25 03:21:48;;;;;;;;;;;;;;;;;;4986779;28;89540;-70
2024/03/25 03:24:13;;;;;;;;;;;;;;;;;;4987108;28;89063;-70
2024/03/25 03:26:38;;;;;;;;;;;;;;;;;;4987145;28;89675;-71
2024/03/25 03:29:04;;;;;;;;;;;;;;;;;;4986942;28;89727;-75
2024/03/25 03:31:29;;;;;;;;;;;;;;;;;;4986851;28;89421;-76
2024/03/25 03:33:54;;;;;;;;;;;;;;;;;;4989684;28;89686;-73
2024/03/25 03:36:21;;;;;;;;;;;;;;;;;;4986964;28;89087;-71
2024/03/25 03:38:46;;;;;;;;;;;;;;;;;;4986851;28;89684;-75
2024/03/25 03:41:12;;;;;;;;;;;;;;;;;;4984752;28;92116;-71
2024/03/25 03:43:37;;;;;;;;;;;;;;;;;;4985768;28;89682;-74
2024/03/25 03:46:03;;;;;;;;;;;;;;;;;;4986617;28;89718;-73
2024/03/25 03:48:28;;;;;;;;;;;;;;;;;;4986379;28;89730;-71
2024/03/25 03:50:53;;;;;;;;;;;;;;;;;;4986215;28;89970;-71
2024/03/25 03:53:19;;;;;;;;;;;;;;;;;;4985266;28;92374;-71
2024/03/25 03:55:53;;;;;;;;;;;;;;;;;;4989208;28;89411;-71
2024/03/25 03:58:19;;;;;;;;;;;;;;;;;;4987010;28;89800;-68
2024/03/25 04:00:44;;;;;;;;;;;;;;;;;;4986376;28;89544;-71
2024/03/25 04:03:09;;;;;;;;;;;;;;;;;;4986559;28;89322;-68
2024/03/25 04:05:34;;;;;;;;;;;;;;;;;;4986145;28;89803;-70
2024/03/25 04:08:00;;;;;;;;;;;;;;;;;;4985532;28;90321;-71
2024/03/25 04:10:26;;;;;;;;;;;;;;;;;;4986975;28;89352;-72
2024/03/25 04:12:52;;;;;;;;;;;;;;;;;;4986642;28;89870;-74
2024/03/25 04:15:17;;;;;;;;;;;;;;;;;;4986214;28;90363;-75
2024/03/25 04:17:46;;;;;;;;;;;;;;;;;;4977596;28;89037;-74
2024/03/25 04:20:11;;;;;;;;;;;;;;;;;;4965271;28;89351;-76
2024/03/25 04:22:37;;;;;;;;;;;;;;;;;;4966400;28;90274;-72
2024/03/25 04:25:02;;;;;;;;;;;;;;;;;;4966365;28;90881;-72
2024/03/25 04:27:28;;;;;;;;;;;;;;;;;;4971561;28;90584;-72
2024/03/25 04:29:53;;;;;;;;;;;;;;;;;;4985918;28;89610;-72
2024/03/25 04:32:18;;;;;;;;;;;;;;;;;;4985471;28;90225;-71
2024/03/25 04:34:44;;;;;;;;;;;;;;;;;;4985182;28;89908;-76
2024/03/25 04:37:09;;;;;;;;;;;;;;;;;;4985731;28;89595;-70
2024/03/25 04:39:35;;;;;;;;;;;;;;;;;;4987459;28;91670;-76
2024/03/25 04:42:00;;;;;;;;;;;;;;;;;;4985483;28;89650;-75
2024/03/25 04:44:25;;;;;;;;;;;;;;;;;;4985117;28;90311;-75
2024/03/25 04:46:50;;;;;;;;;;;;;;;;;;4985712;28;89391;-76
2024/03/25 04:49:16;;;;;;;;;;;;;;;;;;4986089;28;89453;-75
2024/03/25 04:51:41;;;;;;;;;;;;;;;;;;4985651;28;89981;-76
2024/03/25 04:54:06;;;;;;;;;;;;;;;;;;4985682;28;89367;-73
2024/03/25 04:56:31;;;;;;;;;;;;;;;;;;4985364;28;89359;-74
2024/03/25 04:59:01;;;;;;;;;;;;;;;;;;4985001;28;89615;-72
2024/03/25 05:01:26;;;;;;;;;;;;;;;;;;4986706;28;92126;-74
2024/03/25 05:03:51;;;;;;;;;;;;;;;;;;4984635;28;89929;-73
2024/03/25 05:06:16;;;;;;;;;;;;;;;;;;4983868;28;90192;-73
2024/03/25 05:08:42;;;;;;;;;;;;;;;;;;4984361;28;89427;-73
2024/03/25 05:11:07;;;;;;;;;;;;;;;;;;4984496;28;89623;-73
2024/03/25 05:13:32;;;;;;;;;;;;;;;;;;4984306;28;89294;-72
2024/03/25 05:15:57;;;;;;;;;;;;;;;;;;4984695;28;89383;-72
2024/03/25 05:18:22;;;;;;;;;;;;;;;;;;4985357;28;89586;-72
2024/03/25 05:20:47;;;;;;;;;;;;;;;;;;4988285;28;89633;-71
2024/03/25 05:23:13;;;;;;;;;;;;;;;;;;4985033;28;90401;-75
2024/03/25 05:25:38;;;;;;;;;;;;;;;;;;4985122;28;89166;-73
2024/03/25 05:28:04;;;;;;;;;;;;;;;;;;4984967;28;89122;-69
2024/03/25 05:30:29;;;;;;;;;;;;;;;;;;4985005;28;89763;-70
2024/03/25 05:32:54;;;;;;;;;;;;;;;;;;4984579;28;89775;-74
2024/03/25 05:35:21;;;;;;;;;;;;;;;;;;4984880;28;89442;-76
2024/03/25 05:37:46;;;;;;;;;;;;;;;;;;4984257;28;90144;-73
2024/03/25 05:40:11;;;;;;;;;;;;;;;;;;4983105;28;92107;-75
2024/03/25 05:42:37;;;;;;;;;;;;;;;;;;4985745;28;90301;-68
2024/03/25 05:45:02;;;;;;;;;;;;;;;;;;4984582;28;89666;-72
2024/03/25 05:47:28;;;;;;;;;;;;;;;;;;4985040;28;89370;-69
2024/03/25 05:49:53;;;;;;;;;;;;;;;;;;4985841;28;90154;-69
2024/03/25 05:52:18;;;;;;;;;;;;;;;;;;4989142;28;90318;-73
2024/03/25 05:54:43;;;;;;;;;;;;;;;;;;4988139;28;89301;-75
2024/03/25 05:57:08;;;;;;;;;;;;;;;;;;4987500;28;89053;-75
2024/03/25 05:59:34;;;;;;;;;;;;;;;;;;4987821;28;89462;-74
2024/03/25 06:01:59;;;;;;;;;;;;;;;;;;4987716;28;89497;-75
2024/03/25 06:04:24;;;;;;;;;;;;;;;;;;4990784;28;89680;-76
2024/03/25 06:06:49;;;;;;;;;;;;;;;;;;4987390;28;89603;-76
2024/03/25 06:09:15;;;;;;;;;;;;;;;;;;4985963;28;91248;-75
2024/03/25 06:11:40;;;;;;;;;;;;;;;;;;4987993;28;89440;-75
2024/03/25 06:14:05;;;;;;;;;;;;;;;;;;4987930;28;89272;-75
2024/03/25 06:16:30;;;;;;;;;;;;;;;;;;4987923;28;89689;-75
2024/03/25 06:18:55;;;;;;;;;;;;;;;;;;4987724;28;89266;-74
2024/03/25 06:21:22;;;;;;;;;;;;;;;;;;4987451;28;89556;-75
2024/03/25 06:23:47;;;;;;;;;;;;;;;;;;4977123;28;90073;-75
2024/03/25 06:26:12;;;;;;;;;;;;;;;;;;4970910;28;90659;-75
2024/03/25 06:28:37;;;;;;;;;;;;;;;;;;4967573;28;90176;-75
2024/03/25 06:36:30;;;;;;;;;;;;;;;;;;4978137;28;90533;-72
2024/03/25 06:38:55;;;;;;;;;;;;;;;;;;4987639;28;89280;-75
2024/03/25 06:41:21;;;;;;;;;;;;;;;;;;4987632;28;89270;-70
2024/03/25 06:43:46;;;;;;;;;;;;;;;;;;4986480;28;89783;-73
2024/03/25 06:46:11;;;;;;;;;;;;;;;;;;4986231;28;89565;-73
2024/03/25 06:48:36;;;;;;;;;;;;;;;;;;4989419;28;89788;-75
2024/03/25 06:51:02;;;;;;;;;;;;;;;;;;4986149;28;89273;-76
2024/03/25 06:53:28;;;;;;;;;;;;;;;;;;4985193;28;89771;-76
2024/03/25 06:55:53;;;;;;;;;;;;;;;;;;4986336;28;90386;-70
2024/03/25 06:58:21;;;;;;;;;;;;;;;;;;4985803;28;89385;-73
2024/03/25 07:00:48;;;;;;;;;;;;;;;;;;4985042;28;89630;-73
2024/03/25 07:03:13;;;;;;;;;;;;;;;;;;4985793;28;89671;-71
2024/03/25 07:05:38;;;;;;;;;;;;;;;;;;4983658;28;91819;-70
2024/03/25 07:08:05;;;;;;;;;;;;;;;;;;4985420;28;89369;-70
2024/03/25 07:10:30;;;;;;;;;;;;;;;;;;4987703;28;90698;-70
2024/03/25 07:12:55;;;;;;;;;;;;;;;;;;4986013;28;89034;-70
2024/03/25 07:15:20;;;;;;;;;;;;;;;;;;4985895;28;89404;-68
2024/03/25 07:17:45;;;;;;;;;;;;;;;;;;4985613;28;89310;-67
2024/03/25 07:20:11;;;;;;;;;;;;;;;;;;4985417;28;89012;-67
2024/03/25 07:22:36;;;;;;;;;;;;;;;;;;4985314;28;89705;-68
2024/03/25 07:25:01;;;;;;;;;;;;;;;;;;4984851;28;89706;-67
2024/03/25 07:27:26;;;;;;;;;;;;;;;;;;4985647;28;89506;-70
2024/03/25 07:29:52;;;;;;;;;;;;;;;;;;4988666;28;90543;-67
2024/03/25 07:32:17;;;;;;;;;;;;;;;;;;4985271;28;89592;-73
2024/03/25 07:34:42;;;;;;;;;;;;;;;;;;4984617;28;89699;-73
2024/03/25 07:37:07;;;;;;;;;;;;;;;;;;4985001;28;89701;-68
2024/03/25 07:39:32;;;;;;;;;;;;;;;;;;4984828;28;89707;-69
2024/03/25 07:41:59;;;;;;;;;;;;;;;;;;4984876;28;90305;-73
2024/03/25 07:44:24;;;;;;;;;;;;;;;;;;4943484;28;1224321;-68
2024/03/25 07:46:50;;;;;;;;;;;;;;;;;;4985854;28;89109;-73
2024/03/25 07:49:15;;;;;;;;;;;;;;;;;;4986271;28;89865;-68
2024/03/25 07:51:40;;;;;;;;;;;;;;;;;;4988838;28;89777;-71
2024/03/25 07:54:05;;;;;;;;;;;;;;;;;;4985533;28;89928;-72
2024/03/25 07:56:32;;;;;;;;;;;;;;;;;;4985395;28;90271;-73
2024/03/25 07:58:59;;;;;;;;;;;;;;;;;;4985388;28;89688;-73
2024/03/25 08:01:25;;;;;;;;;;;;;;;;;;4985498;28;89863;-71
2024/03/25 08:03:50;;;;;;;;;;;;;;;;;;4985366;28;89443;-74
2024/03/25 08:06:15;;;;;;;;;;;;;;;;;;4986152;28;89288;-73
2024/03/25 08:08:41;;;;;;;;;;;;;;;;;;4986210;28;89659;-73
2024/03/25 08:11:06;;;;;;;;;;;;;;;;;;4986030;28;89760;-74
2024/03/25 08:13:31;;;;;;;;;;;;;;;;;;4987685;28;89485;-73
2024/03/25 08:15:56;;;;;;;;;;;;;;;;;;4984587;28;92009;-73
2024/03/25 08:18:21;;;;;;;;;;;;;;;;;;4984469;28;89598;-72
2024/03/25 08:20:46;;;;;;;;;;;;;;;;;;4977302;28;90303;-70
2024/03/25 08:23:12;;;;;;;;;;;;;;;;;;4965514;28;89542;-74
2024/03/25 08:25:37;;;;;;;;;;;;;;;;;;4965754;28;89719;-74
2024/03/25 08:28:02;;;;;;;;;;;;;;;;;;4997598;28;91276;-71
2024/03/25 08:30:28;;;;;;;;;;;;;;;;;;4980369;28;93153;-73
2024/03/25 08:32:53;;;;;;;;;;;;;;;;;;4946888;28;89957;-73
2024/03/25 08:35:18;;;;;;;;;;;;;;;;;;4949926;28;89679;-73
2024/03/25 08:37:43;;;;;;;;;;;;;;;;;;4969900;28;90863;-73
2024/03/25 08:40:09;;;;;;;;;;;;;;;;;;4985865;28;89755;-74
2024/03/25 08:42:34;;;;;;;;;;;;;;;;;;4985300;28;89346;-70
2024/03/25 08:45:00;;;;;;;;;;;;;;;;;;4985872;28;90140;-72
2024/03/25 08:47:25;;;;;;;;;;;;;;;;;;4985014;28;90598;-72
2024/03/25 08:49:50;;;;;;;;;;;;;;;;;;4985183;28;89920;-69
2024/03/25 08:52:15;;;;;;;;;;;;;;;;;;4985705;28;89649;-73
2024/03/25 08:54:40;;;;;;;;;;;;;;;;;;4985231;28;89771;-73
2024/03/25 08:57:06;;;;;;;;;;;;;;;;;;4988732;28;89825;-74
2024/03/25 08:59:31;;;;;;;;;;;;;;;;;;4986371;28;89737;-69
2024/03/25 09:01:56;;;;;;;;;;;;;;;;;;4985476;28;90032;-69
2024/03/25 09:04:21;;;;;;;;;;;;;;;;;;4985816;28;89621;-71
2024/03/25 09:06:47;;;;;;;;;;;;;;;;;;4985529;28;90002;-71
2024/03/25 09:11:57;;;;;;;;;;;;;;;;;;4984591;28;88984;-68
2024/03/25 09:14:22;;;;;;;;;;;;;;;;;;4984887;28;89626;-74
2024/03/25 09:16:47;;;;;;;;;;;;;;;;;;4984444;28;89294;-72
2024/03/25 09:19:12;;;;;;;;;;;;;;;;;;4987410;28;89499;-72
2024/03/25 09:21:37;;;;;;;;;;;;;;;;;;4984466;28;89600;-71
2024/03/25 09:24:03;;;;;;;;;;;;;;;;;;4984546;28;89323;-72
2024/03/25 09:26:28;;;;;;;;;;;;;;;;;;4984533;28;89885;-70
2024/03/25 09:28:53;;;;;;;;;;;;;;;;;;4985218;28;90085;-73
2024/03/25 09:31:18;;;;;;;;;;;;;;;;;;4984559;28;89756;-72
2024/03/25 09:33:43;;;;;;;;;;;;;;;;;;4982973;28;92297;-70
2024/03/25 09:36:09;;;;;;;;;;;;;;;;;;4983592;28;89169;-70
2024/03/25 09:38:34;;;;;;;;;;;;;;;;;;4987139;28;89642;-72
2024/03/25 09:40:59;;;;;;;;;;;;;;;;;;4984083;28;89753;-73
2024/03/25 09:43:45;;;;;;;;;;;;;;;;;;4982375;28;90517;-72
2024/03/25 09:46:10;;;;;;;;;;;;;;;;;;4983773;28;89998;-69
2024/03/25 09:48:36;;;;;;;;;;;;;;;;;;4984183;28;89616;-73
2024/03/25 09:51:02;;;;;;;;;;;;;;;;;;4984164;28;89635;-73
2024/03/25 09:53:27;;;;;;;;;;;;;;;;;;4984211;28;90736;-69
2024/03/25 09:55:54;;;;;;;;;;;;;;;;;;4984034;28;89398;-70
2024/03/25 09:58:19;;;;;;;;;;;;;;;;;;4983448;28;90499;-69
2024/03/25 10:00:45;;;;;;;;;;;;;;;;;;4987198;28;89736;-72
2024/03/25 10:03:10;;;;;;;;;;;;;;;;;;4984625;28;89328;-70
2024/03/25 10:05:36;;;;;;;;;;;;;;;;;;4984358;28;89894;-72
2024/03/25 10:08:01;;;;;;;;;;;;;;;;;;4984147;28;89370;-72
2024/03/25 10:10:26;;;;;;;;;;;;;;;;;;4984523;28;89539;-71
2024/03/25 10:12:54;;;;;;;;;;;;;;;;;;4984525;28;89718;-71
2024/03/25 10:15:19;;;;;;;;;;;;;;;;;;4982756;28;91488;-72
2024/03/25 10:17:45;;;;;;;;;;;;;;;;;;4984738;28;89518;-69
2024/03/25 10:20:16;;;;;;;;;;;;;;;;;;4983095;28;89713;-70
2024/03/25 10:22:46;;;;;;;;;;;;;;;;;;4967704;28;89220;-70
2024/03/25 10:25:25;;;;;;;;;;;;;;;;;;4964083;28;90752;-69
2024/03/25 10:27:58;;;;;;;;;;;;;;;;;;4965244;28;89710;-74
2024/03/25 10:30:23;;;;;;;;;;;;;;;;;;4966552;28;90502;-72
2024/03/25 10:33:05;;;;;;;;;;;;;;;;;;4966126;28;90818;-74
2024/03/25 10:35:40;;;;;;;;;;;;;;;;;;4964005;28;89854;-73
2024/03/25 10:38:10;;;;;;;;;;;;;;;;;;4967374;28;88954;-72
2024/03/25 10:40:39;;;;;;;;;;;;;;;;;;4967508;28;89445;-73
2024/03/25 10:43:08;;;;;;;;;;;;;;;;;;4966028;28;92325;-73
2024/03/25 10:45:53;;;;;;;;;;;;;;;;;;4973937;28;89710;-73
2024/03/25 10:48:27;;;;;;;;;;;;;;;;;;4986565;28;89626;-73
2024/03/25 10:50:54;;;;;;;;;;;;;;;;;;4985672;28;89470;-71
2024/03/25 10:53:20;;;;;;;;;;;;;;;;;;4987096;28;91054;-73
2024/03/25 10:55:48;;;;;;;;;;;;;;;;;;4987097;28;89665;-73
2024/03/25 10:58:15;;;;;;;;;;;;;;;;;;4986851;28;89342;-74
2024/03/25 11:00:41;;;;;;;;;;;;;;;;;;4987772;28;89667;-73
2024/03/25 11:03:08;;;;;;;;;;;;;;;;;;4987493;28;90770;-73
2024/03/25 11:05:34;;;;;;;;;;;;;;;;;;4987225;28;89300;-73
2024/03/25 11:08:09;;;;;;;;;;;;;;;;;;4989931;28;90262;-73
2024/03/25 11:10:39;;;;;;;;;;;;;;;;;;4987010;28;89087;-73
2024/03/25 11:13:09;;;;;;;;;;;;;;;;;;4987019;28;89578;-73
2024/03/25 11:15:41;;;;;;;;;;;;;;;;;;4986542;28;90227;-74
2024/03/25 11:18:10;;;;;;;;;;;;;;;;;;4987532;28;89762;-73
2024/03/25 11:20:35;;;;;;;;;;;;;;;;;;4987622;28;90153;-73
2024/03/25 11:23:07;;;;;;;;;;;;;;;;;;4987324;28;90548;-72
2024/03/25 11:25:33;;;;;;;;;;;;;;;;;;4985884;28;89545;-72
2024/03/25 11:27:58;;;;;;;;;;;;;;;;;;4984854;28;91251;-73
2024/03/25 11:30:26;;;;;;;;;;;;;;;;;;4988838;28;89694;-72
2024/03/25 11:32:52;;;;;;;;;;;;;;;;;;4986459;28;90406;-74
2024/03/25 11:35:17;;;;;;;;;;;;;;;;;;4986480;28;89827;-73
2024/03/25 11:37:43;;;;;;;;;;;;;;;;;;4986608;28;89449;-74
2024/03/25 11:40:11;;;;;;;;;;;;;;;;;;4986512;28;89719;-73
2024/03/25 11:42:38;;;;;;;;;;;;;;;;;;4985518;28;91394;-72
2024/03/25 11:45:03;;;;;;;;;;;;;;;;;;4986333;28;89198;-73
2024/03/25 11:47:29;;;;;;;;;;;;;;;;;;4986580;28;89666;-73
2024/03/25 11:49:54;;;;;;;;;;;;;;;;;;4990031;28;89283;-74
2024/03/25 11:52:19;;;;;;;;;;;;;;;;;;4987188;28;90505;-72
2024/03/25 11:54:45;;;;;;;;;;;;;;;;;;4988296;28;89549;-73
2024/03/25 11:57:10;;;;;;;;;;;;;;;;;;4991290;28;89599;-72
2024/03/25 11:59:35;;;;;;;;;;;;;;;;;;4986444;28;90290;-73
2024/03/25 12:02:00;;;;;;;;;;;;;;;;;;4985565;28;89692;-73
2024/03/25 12:04:26;;;;;;;;;;;;;;;;;;4985503;28;89356;-72
2024/03/25 12:06:54;;;;;;;;;;;;;;;;;;4985708;28;89221;-73
2024/03/25 12:12:03;;;;;;;;;;;;;;;;;;4988957;28;90730;-73
2024/03/25 12:14:29;;;;;;;;;;;;;;;;;;4986184;28;89168;-73
2024/03/25 12:16:55;;;;;;;;;;;;;;;;;;4985682;28;89826;-74
2024/03/25 12:19:20;;;;;;;;;;;;;;;;;;4985576;28;89890;-73
2024/03/25 12:21:46;;;;;;;;;;;;;;;;;;4985424;28;89694;-73
2024/03/25 12:24:12;;;;;;;;;;;;;;;;;;4984051;28;90406;-73
2024/03/25 12:26:37;;;;;;;;;;;;;;;;;;4985336;28;89271;-71
2024/03/25 12:29:04;;;;;;;;;;;;;;;;;;4984786;28;89581;-73
2024/03/25 12:31:29;;;;;;;;;;;;;;;;;;4965857;28;90733;-74
2024/03/25 12:33:54;;;;;;;;;;;;;;;;;;4968766;28;89636;-73
2024/03/25 12:36:20;;;;;;;;;;;;;;;;;;4965683;28;89640;-73
2024/03/25 12:38:53;;;;;;;;;;;;;;;;;;4965373;28;90240;-74
2024/03/25 12:41:21;;;;;;;;;;;;;;;;;;4965786;28;89504;-73
2024/03/25 12:43:47;;;;;;;;;;;;;;;;;;4965962;28;89358;-73
2024/03/25 12:46:12;;;;;;;;;;;;;;;;;;4997878;28;89572;-73
2024/03/25 12:48:37;;;;;;;;;;;;;;;;;;4993521;28;90255;-73
2024/03/25 12:51:03;;;;;;;;;;;;;;;;;;4965110;28;89269;-73
2024/03/25 12:53:28;;;;;;;;;;;;;;;;;;4964970;28;89723;-74
2024/03/25 12:55:53;;;;;;;;;;;;;;;;;;4968722;28;90033;-74
2024/03/25 12:58:18;;;;;;;;;;;;;;;;;;4965723;28;90019;-74
2024/03/25 13:00:44;;;;;;;;;;;;;;;;;;4965901;28;89703;-74
2024/03/25 13:03:09;;;;;;;;;;;;;;;;;;4966028;28;89460;-73
2024/03/25 13:05:35;;;;;;;;;;;;;;;;;;4964208;28;93074;-69
2024/03/25 13:08:00;;;;;;;;;;;;;;;;;;4965546;28;89311;-70
2024/03/25 13:10:26;;;;;;;;;;;;;;;;;;4965628;28;89784;-70
2024/03/25 13:12:51;;;;;;;;;;;;;;;;;;4964197;28;90869;-72
2024/03/25 13:15:16;;;;;;;;;;;;;;;;;;4966273;28;89720;-73
2024/03/25 13:17:41;;;;;;;;;;;;;;;;;;4968874;28;89713;-74
2024/03/25 13:20:07;;;;;;;;;;;;;;;;;;4965636;28;89773;-73
2024/03/25 13:22:32;;;;;;;;;;;;;;;;;;4967358;28;89778;-74
2024/03/25 13:24:58;;;;;;;;;;;;;;;;;;4966157;28;89826;-73
2024/03/25 13:27:23;;;;;;;;;;;;;;;;;;4964759;28;90119;-73
2024/03/25 13:29:48;;;;;;;;;;;;;;;;;;4964646;28;89596;-71
2024/03/25 13:32:13;;;;;;;;;;;;;;;;;;4964768;28;89728;-72
2024/03/25 13:34:39;;;;;;;;;;;;;;;;;;4965261;28;89791;-71
2024/03/25 13:37:04;;;;;;;;;;;;;;;;;;4963424;28;89283;-74
2024/03/25 13:39:29;;;;;;;;;;;;;;;;;;4967436;28;89482;-72
2024/03/25 13:41:54;;;;;;;;;;;;;;;;;;4964827;28;89027;-70
2024/03/25 13:44:20;;;;;;;;;;;;;;;;;;4964998;28;89760;-71
2024/03/25 13:46:45;;;;;;;;;;;;;;;;;;4965043;28;89570;-73
2024/03/25 13:49:11;;;;;;;;;;;;;;;;;;4964830;28;89068;-70
2024/03/25 13:51:36;;;;;;;;;;;;;;;;;;4964205;28;90237;-72
2024/03/25 13:54:02;;;;;;;;;;;;;;;;;;4964548;28;89731;-73
2024/03/25 13:56:27;;;;;;;;;;;;;;;;;;4964620;28;88990;-71
2024/03/25 13:58:52;;;;;;;;;;;;;;;;;;4966087;28;91133;-69
2024/03/25 14:01:18;;;;;;;;;;;;;;;;;;4964237;28;89568;-71
2024/03/25 14:03:43;;;;;;;;;;;;;;;;;;4964211;28;89695;-68
2024/03/25 14:06:08;;;;;;;;;;;;;;;;;;4963619;28;89649;-73
2024/03/25 14:08:33;;;;;;;;;;;;;;;;;;4963747;28;89080;-70
2024/03/25 14:10:59;;;;;;;;;;;;;;;;;;4964184;28;89418;-73
2024/03/25 14:13:25;;;;;;;;;;;;;;;;;;4967348;28;89623;-70
2024/03/25 14:15:50;;;;;;;;;;;;;;;;;;4967667;28;89279;-73
2024/03/25 14:18:16;;;;;;;;;;;;;;;;;;4967729;28;90254;-73
2024/03/25 14:20:41;;;;;;;;;;;;;;;;;;4970652;28;89391;-73
2024/03/25 14:23:06;;;;;;;;;;;;;;;;;;4967922;28;89690;-73
2024/03/25 14:25:32;;;;;;;;;;;;;;;;;;4967492;28;89595;-72
2024/03/25 14:27:57;;;;;;;;;;;;;;;;;;4968191;28;89779;-73
2024/03/25 14:30:22;;;;;;;;;;;;;;;;;;4967573;28;89669;-73
2024/03/25 14:32:48;;;;;;;;;;;;;;;;;;4967499;28;91462;-73
2024/03/25 14:35:14;;;;;;;;;;;;;;;;;;4968685;28;89375;-72
2024/03/25 14:37:39;;;;;;;;;;;;;;;;;;4968316;28;89694;-73
2024/03/25 14:40:05;;;;;;;;;;;;;;;;;;4966352;28;90650;-73
2024/03/25 14:42:31;;;;;;;;;;;;;;;;;;4970187;28;89432;-72
2024/03/25 14:44:56;;;;;;;;;;;;;;;;;;4967604;28;89573;-73
2024/03/25 14:47:21;;;;;;;;;;;;;;;;;;4982547;28;89347;-73
2024/03/25 14:49:47;;;;;;;;;;;;;;;;;;4988800;28;91257;-72
2024/03/25 14:52:12;;;;;;;;;;;;;;;;;;4986574;28;89793;-73
2024/03/25 14:54:37;;;;;;;;;;;;;;;;;;4986232;28;89461;-73
2024/03/25 14:57:02;;;;;;;;;;;;;;;;;;4986842;28;89765;-73
2024/03/25 14:59:28;;;;;;;;;;;;;;;;;;4986669;28;90058;-72
2024/03/25 15:01:54;;;;;;;;;;;;;;;;;;4965628;28;89047;-74
2024/03/25 15:04:19;;;;;;;;;;;;;;;;;;4950736;28;89915;-73
2024/03/25 15:06:44;;;;;;;;;;;;;;;;;;4947570;28;89533;-73
2024/03/25 15:09:09;;;;;;;;;;;;;;;;;;4947505;28;89943;-73
2024/03/25 15:11:34;;;;;;;;;;;;;;;;;;4947422;28;89203;-70
2024/03/25 15:14:01;;;;;;;;;;;;;;;;;;4962233;28;90745;-70
2024/03/25 15:16:26;;;;;;;;;;;;;;;;;;4947168;28;90045;-70
2024/03/25 15:18:52;;;;;;;;;;;;;;;;;;4946570;28;89523;-73
2024/03/25 15:21:17;;;;;;;;;;;;;;;;;;4947334;28;89513;-73
2024/03/25 15:23:42;;;;;;;;;;;;;;;;;;4961917;28;91465;-72
2024/03/25 15:26:07;;;;;;;;;;;;;;;;;;4949675;28;89631;-73
2024/03/25 15:28:33;;;;;;;;;;;;;;;;;;4947436;28;89820;-74
2024/03/25 15:30:59;;;;;;;;;;;;;;;;;;4947404;28;89420;-73
2024/03/25 15:33:24;;;;;;;;;;;;;;;;;;4947315;28;89727;-73
2024/03/25 15:35:49;;;;;;;;;;;;;;;;;;4947724;28;89485;-72
2024/03/25 15:38:15;;;;;;;;;;;;;;;;;;4947174;28;89763;-73
2024/03/25 15:40:41;;;;;;;;;;;;;;;;;;4946955;28;89474;-73
2024/03/25 15:43:06;;;;;;;;;;;;;;;;;;4946271;28;90655;-70
2024/03/25 15:45:31;;;;;;;;;;;;;;;;;;4950056;28;89925;-73
2024/03/25 15:47:57;;;;;;;;;;;;;;;;;;4946835;28;89754;-73
2024/03/25 15:50:22;;;;;;;;;;;;;;;;;;4947016;28;89641;-72
2024/03/25 15:52:47;;;;;;;;;;;;;;;;;;4946461;28;89595;-73
2024/03/25 15:55:13;;;;;;;;;;;;;;;;;;4946228;28;90128;-72
2024/03/25 15:57:38;;;;;;;;;;;;;;;;;;4946691;28;89822;-71
2024/03/25 16:00:05;;;;;;;;;;;;;;;;;;4946737;28;89839;-72
2024/03/25 16:02:30;;;;;;;;;;;;;;;;;;4946011;28;89831;-73
2024/03/25 16:04:55;;;;;;;;;;;;;;;;;;4946195;28;89499;-71
2024/03/25 16:07:20;;;;;;;;;;;;;;;;;;4949103;28;89666;-73
2024/03/25 16:09:46;;;;;;;;;;;;;;;;;;4946703;28;89562;-73
2024/03/25 16:12:11;;;;;;;;;;;;;;;;;;4946563;28;89405;-73
2024/03/25 16:14:36;;;;;;;;;;;;;;;;;;4963495;28;92779;-73
2024/03/25 16:17:02;;;;;;;;;;;;;;;;;;4948481;28;89249;-72
2024/03/25 16:19:27;;;;;;;;;;;;;;;;;;4946182;28;89493;-73
2024/03/25 16:21:52;;;;;;;;;;;;;;;;;;4961776;28;92389;-69
2024/03/25 16:24:18;;;;;;;;;;;;;;;;;;4946834;28;90191;-72
2024/03/25 16:26:43;;;;;;;;;;;;;;;;;;4946850;28;90736;-74
2024/03/25 16:29:08;;;;;;;;;;;;;;;;;;4949382;28;90209;-71
2024/03/25 16:31:33;;;;;;;;;;;;;;;;;;4945741;28;89623;-73
2024/03/25 16:33:58;;;;;;;;;;;;;;;;;;4945825;28;89779;-72
2024/03/25 16:36:24;;;;;;;;;;;;;;;;;;4961562;28;89182;-71
2024/03/25 16:38:49;;;;;;;;;;;;;;;;;;4966036;28;89596;-73
2024/03/25 16:41:14;;;;;;;;;;;;;;;;;;4964735;28;90092;-72
2024/03/25 16:43:40;;;;;;;;;;;;;;;;;;4981148;28;90042;-74
2024/03/25 16:46:05;;;;;;;;;;;;;;;;;;4983243;28;90485;-72